sensor_id;sensor_type;location;lat;lon;timestamp;P1;durP1;ratioP1;P2;durP2;ratioP2
422;SDS011;198;48.752;9.180;2023-12-20T00:01:39;2.67;;;1.40;;
422;SDS011;198;48.752;9.180;2023-12-20T00:04:05;2.87;;;1.40;;
422;SDS011;198;48.752;9.180;2023-12-20T00:06:31;3.60;;;1.30;;
422;SDS011;198;48.752;9.180;2023-12-20T00:08:57;3.20;;;1.20;;
422;SDS011;198;48.752;9.180;2023-12-20T00:11:25;1.50;;;1.40;;
422;SDS011;198;48.752;9.180;2023-12-20T00:13:50;2.07;;;1.00;;
422;SDS011;198;48.752;9.180;2023-12-20T00:16:16;1.30;;;1.20;;
422;SDS011;198;48.752;9.180;2023-12-20T00:18:42;2.40;;;1.20;;
422;SDS011;198;48.752;9.180;2023-12-20T00:21:07;2.67;;;1.10;;
422;SDS011;198;48.752;9.180;2023-12-20T00:23:33;4.13;;;1.50;;
422;SDS011;198;48.752;9.180;2023-12-20T00:25:58;2.13;;;1.30;;
422;SDS011;198;48.752;9.180;2023-12-20T00:28:24;1.13;;;1.03;;
422;SDS011;198;48.752;9.180;2023-12-20T00:30:49;1.20;;;1.10;;
422;SDS011;198;48.752;9.180;2023-12-20T00:33:15;1.10;;;1.00;;
422;SDS011;198;48.752;9.180;2023-12-20T00:35:40;3.03;;;1.30;;
422;SDS011;198;48.752;9.180;2023-12-20T00:38:06;1.30;;;1.23;;
422;SDS011;198;48.752;9.180;2023-12-20T00:40:33;1.37;;;0.90;;
422;SDS011;198;48.752;9.180;2023-12-20T00:42:59;0.83;;;0.77;;
422;SDS011;198;48.752;9.180;2023-12-20T00:45:24;0.97;;;0.90;;
422;SDS011;198;48.752;9.180;2023-12-20T00:47:50;1.47;;;1.30;;
422;SDS011;198;48.752;9.180;2023-12-20T00:50:15;3.67;;;1.10;;
422;SDS011;198;48.752;9.180;2023-12-20T00:52:41;1.70;;;1.07;;
422;SDS011;198;48.752;9.180;2023-12-20T00:55:06;1.10;;;1.00;;
422;SDS011;198;48.752;9.180;2023-12-20T00:57:32;3.03;;;1.00;;
422;SDS011;198;48.752;9.180;2023-12-20T00:59:58;1.17;;;0.73;;
422;SDS011;198;48.752;9.180;2023-12-20T01:02:23;0.93;;;0.80;;
422;SDS011;198;48.752;9.180;2023-12-20T01:04:49;2.00;;;1.17;;
422;SDS011;198;48.752;9.180;2023-12-20T01:07:14;1.80;;;1.30;;
422;SDS011;198;48.752;9.180;2023-12-20T01:09:40;1.03;;;0.97;;
422;SDS011;198;48.752;9.180;2023-12-20T01:12:05;1.40;;;0.90;;
422;SDS011;198;48.752;9.180;2023-12-20T01:14:31;1.20;;;1.00;;
422;SDS011;198;48.752;9.180;2023-12-20T01:16:56;1.57;;;1.10;;
422;SDS011;198;48.752;9.180;2023-12-20T01:19:22;1.20;;;1.10;;
422;SDS011;198;48.752;9.180;2023-12-20T01:21:48;1.10;;;1.00;;
422;SDS011;198;48.752;9.180;2023-12-20T01:24:14;1.40;;;1.30;;
422;SDS011;198;48.752;9.180;2023-12-20T01:26:39;1.03;;;0.93;;
422;SDS011;198;48.752;9.180;2023-12-20T01:29:05;2.03;;;1.37;;
422;SDS011;198;48.752;9.180;2023-12-20T01:31:30;1.10;;;1.00;;
422;SDS011;198;48.752;9.180;2023-12-20T01:33:56;1.90;;;1.57;;
422;SDS011;198;48.752;9.180;2023-12-20T01:36:21;1.20;;;1.20;;
422;SDS011;198;48.752;9.180;2023-12-20T01:38:47;2.03;;;1.30;;
422;SDS011;198;48.752;9.180;2023-12-20T01:41:12;1.13;;;1.03;;
422;SDS011;198;48.752;9.180;2023-12-20T01:43:38;3.23;;;1.00;;
422;SDS011;198;48.752;9.180;2023-12-20T01:46:03;2.50;;;1.13;;
422;SDS011;198;48.752;9.180;2023-12-20T01:48:30;3.37;;;1.90;;
422;SDS011;198;48.752;9.180;2023-12-20T01:50:59;1.80;;;1.23;;
422;SDS011;198;48.752;9.180;2023-12-20T01:53:25;2.07;;;1.40;;
422;SDS011;198;48.752;9.180;2023-12-20T01:55:52;1.43;;;1.30;;
422;SDS011;198;48.752;9.180;2023-12-20T01:58:20;1.80;;;1.57;;
422;SDS011;198;48.752;9.180;2023-12-20T02:00:46;1.20;;;1.10;;
422;SDS011;198;48.752;9.180;2023-12-20T02:03:13;1.53;;;1.43;;
422;SDS011;198;48.752;9.180;2023-12-20T02:05:38;1.33;;;1.10;;
422;SDS011;198;48.752;9.180;2023-12-20T02:08:04;1.67;;;1.17;;
422;SDS011;198;48.752;9.180;2023-12-20T02:10:31;2.00;;;1.60;;
422;SDS011;198;48.752;9.180;2023-12-20T02:12:56;1.73;;;1.40;;
422;SDS011;198;48.752;9.180;2023-12-20T02:15:22;1.27;;;1.17;;
422;SDS011;198;48.752;9.180;2023-12-20T02:17:47;1.30;;;1.10;;
422;SDS011;198;48.752;9.180;2023-12-20T02:20:14;1.37;;;1.03;;
422;SDS011;198;48.752;9.180;2023-12-20T02:22:39;1.33;;;1.00;;
422;SDS011;198;48.752;9.180;2023-12-20T02:25:05;0.97;;;0.87;;
422;SDS011;198;48.752;9.180;2023-12-20T02:27:30;0.77;;;0.70;;
422;SDS011;198;48.752;9.180;2023-12-20T02:29:56;1.07;;;0.97;;
422;SDS011;198;48.752;9.180;2023-12-20T02:32:22;1.27;;;1.00;;
422;SDS011;198;48.752;9.180;2023-12-20T02:34:50;2.73;;;1.07;;
422;SDS011;198;48.752;9.180;2023-12-20T02:37:16;1.10;;;0.97;;
422;SDS011;198;48.752;9.180;2023-12-20T02:39:42;1.17;;;0.90;;
422;SDS011;198;48.752;9.180;2023-12-20T02:42:07;1.27;;;0.80;;
422;SDS011;198;48.752;9.180;2023-12-20T02:44:33;1.33;;;1.10;;
422;SDS011;198;48.752;9.180;2023-12-20T02:46:59;1.13;;;0.80;;
422;SDS011;198;48.752;9.180;2023-12-20T02:49:24;0.63;;;0.60;;
422;SDS011;198;48.752;9.180;2023-12-20T02:51:50;0.60;;;0.50;;
422;SDS011;198;48.752;9.180;2023-12-20T02:54:15;0.70;;;0.70;;
422;SDS011;198;48.752;9.180;2023-12-20T02:56:41;0.97;;;0.93;;
422;SDS011;198;48.752;9.180;2023-12-20T02:59:06;0.60;;;0.53;;
422;SDS011;198;48.752;9.180;2023-12-20T03:01:33;0.70;;;0.60;;
422;SDS011;198;48.752;9.180;2023-12-20T03:03:59;1.07;;;0.83;;
422;SDS011;198;48.752;9.180;2023-12-20T03:06:25;1.70;;;0.83;;
422;SDS011;198;48.752;9.180;2023-12-20T03:08:50;0.70;;;0.60;;
422;SDS011;198;48.752;9.180;2023-12-20T03:11:16;0.70;;;0.60;;
422;SDS011;198;48.752;9.180;2023-12-20T03:13:41;2.07;;;0.70;;
422;SDS011;198;48.752;9.180;2023-12-20T03:16:10;0.70;;;0.63;;
422;SDS011;198;48.752;9.180;2023-12-20T03:18:37;0.90;;;0.60;;
422;SDS011;198;48.752;9.180;2023-12-20T03:21:03;1.20;;;0.70;;
422;SDS011;198;48.752;9.180;2023-12-20T03:23:29;0.73;;;0.70;;
422;SDS011;198;48.752;9.180;2023-12-20T03:25:55;0.80;;;0.77;;
422;SDS011;198;48.752;9.180;2023-12-20T03:28:21;2.80;;;0.70;;
422;SDS011;198;48.752;9.180;2023-12-20T03:30:48;1.17;;;0.70;;
422;SDS011;198;48.752;9.180;2023-12-20T03:33:13;0.60;;;0.57;;
422;SDS011;198;48.752;9.180;2023-12-20T03:35:39;0.63;;;0.60;;
422;SDS011;198;48.752;9.180;2023-12-20T03:38:04;0.70;;;0.60;;
422;SDS011;198;48.752;9.180;2023-12-20T03:40:30;1.17;;;0.50;;
422;SDS011;198;48.752;9.180;2023-12-20T03:42:55;2.20;;;0.50;;
422;SDS011;198;48.752;9.180;2023-12-20T03:45:21;0.70;;;0.60;;
422;SDS011;198;48.752;9.180;2023-12-20T03:47:46;0.73;;;0.40;;
422;SDS011;198;48.752;9.180;2023-12-20T03:50:12;0.50;;;0.40;;
422;SDS011;198;48.752;9.180;2023-12-20T03:52:38;2.77;;;0.60;;
422;SDS011;198;48.752;9.180;2023-12-20T03:55:03;0.60;;;0.50;;
422;SDS011;198;48.752;9.180;2023-12-20T03:57:29;1.07;;;0.50;;
422;SDS011;198;48.752;9.180;2023-12-20T03:59:55;0.57;;;0.50;;
422;SDS011;198;48.752;9.180;2023-12-20T04:02:20;0.50;;;0.40;;
422;SDS011;198;48.752;9.180;2023-12-20T04:04:46;4.20;;;0.80;;
422;SDS011;198;48.752;9.180;2023-12-20T04:07:11;0.60;;;0.50;;
422;SDS011;198;48.752;9.180;2023-12-20T04:09:37;0.50;;;0.40;;
422;SDS011;198;48.752;9.180;2023-12-20T04:12:02;1.90;;;0.60;;
422;SDS011;198;48.752;9.180;2023-12-20T04:14:28;0.50;;;0.40;;
422;SDS011;198;48.752;9.180;2023-12-20T04:16:54;0.50;;;0.40;;
422;SDS011;198;48.752;9.180;2023-12-20T04:19:19;0.60;;;0.50;;
422;SDS011;198;48.752;9.180;2023-12-20T04:21:45;0.50;;;0.50;;
422;SDS011;198;48.752;9.180;2023-12-20T04:24:10;0.60;;;0.50;;
422;SDS011;198;48.752;9.180;2023-12-20T04:26:36;0.60;;;0.50;;
422;SDS011;198;48.752;9.180;2023-12-20T04:29:01;0.60;;;0.50;;
422;SDS011;198;48.752;9.180;2023-12-20T04:31:27;0.80;;;0.50;;
422;SDS011;198;48.752;9.180;2023-12-20T04:33:52;0.40;;;0.40;;
422;SDS011;198;48.752;9.180;2023-12-20T04:36:18;1.77;;;0.70;;
422;SDS011;198;48.752;9.180;2023-12-20T04:38:43;0.50;;;0.40;;
422;SDS011;198;48.752;9.180;2023-12-20T04:41:09;0.50;;;0.50;;
422;SDS011;198;48.752;9.180;2023-12-20T04:43:34;0.50;;;0.40;;
422;SDS011;198;48.752;9.180;2023-12-20T04:46:00;0.50;;;0.40;;
422;SDS011;198;48.752;9.180;2023-12-20T04:48:25;0.67;;;0.50;;
422;SDS011;198;48.752;9.180;2023-12-20T04:50:51;0.50;;;0.40;;
422;SDS011;198;48.752;9.180;2023-12-20T04:53:16;0.47;;;0.43;;
422;SDS011;198;48.752;9.180;2023-12-20T04:55:41;0.57;;;0.47;;
422;SDS011;198;48.752;9.180;2023-12-20T04:58:07;1.40;;;0.40;;
422;SDS011;198;48.752;9.180;2023-12-20T05:00:32;0.73;;;0.40;;
422;SDS011;198;48.752;9.180;2023-12-20T05:02:58;0.50;;;0.40;;
422;SDS011;198;48.752;9.180;2023-12-20T05:05:23;0.50;;;0.40;;
422;SDS011;198;48.752;9.180;2023-12-20T05:07:49;0.50;;;0.40;;
422;SDS011;198;48.752;9.180;2023-12-20T05:10:14;0.50;;;0.40;;
422;SDS011;198;48.752;9.180;2023-12-20T05:12:40;0.60;;;0.50;;
422;SDS011;198;48.752;9.180;2023-12-20T05:15:06;0.60;;;0.50;;
422;SDS011;198;48.752;9.180;2023-12-20T05:17:31;0.60;;;0.50;;
422;SDS011;198;48.752;9.180;2023-12-20T05:19:57;0.47;;;0.43;;
422;SDS011;198;48.752;9.180;2023-12-20T05:22:22;0.70;;;0.60;;
422;SDS011;198;48.752;9.180;2023-12-20T05:24:48;0.50;;;0.40;;
422;SDS011;198;48.752;9.180;2023-12-20T05:27:14;3.40;;;0.50;;
422;SDS011;198;48.752;9.180;2023-12-20T05:29:39;0.53;;;0.47;;
422;SDS011;198;48.752;9.180;2023-12-20T05:32:05;0.57;;;0.50;;
422;SDS011;198;48.752;9.180;2023-12-20T05:34:31;0.70;;;0.60;;
422;SDS011;198;48.752;9.180;2023-12-20T05:36:57;0.50;;;0.40;;
422;SDS011;198;48.752;9.180;2023-12-20T05:39:23;1.00;;;0.70;;
422;SDS011;198;48.752;9.180;2023-12-20T05:41:48;1.50;;;0.60;;
422;SDS011;198;48.752;9.180;2023-12-20T05:44:14;0.77;;;0.53;;
422;SDS011;198;48.752;9.180;2023-12-20T05:46:39;0.60;;;0.50;;
422;SDS011;198;48.752;9.180;2023-12-20T05:49:05;1.17;;;0.50;;
422;SDS011;198;48.752;9.180;2023-12-20T05:51:31;0.70;;;0.60;;
422;SDS011;198;48.752;9.180;2023-12-20T05:53:57;4.90;;;0.90;;
422;SDS011;198;48.752;9.180;2023-12-20T05:56:23;2.20;;;0.60;;
422;SDS011;198;48.752;9.180;2023-12-20T05:58:49;0.60;;;0.50;;
422;SDS011;198;48.752;9.180;2023-12-20T06:01:15;0.60;;;0.50;;
422;SDS011;198;48.752;9.180;2023-12-20T06:03:43;1.03;;;0.70;;
422;SDS011;198;48.752;9.180;2023-12-20T06:06:10;1.00;;;0.67;;
422;SDS011;198;48.752;9.180;2023-12-20T06:08:37;0.67;;;0.50;;
422;SDS011;198;48.752;9.180;2023-12-20T06:11:03;0.60;;;0.57;;
422;SDS011;198;48.752;9.180;2023-12-20T06:13:29;0.70;;;0.60;;
422;SDS011;198;48.752;9.180;2023-12-20T06:15:55;0.80;;;0.63;;
422;SDS011;198;48.752;9.180;2023-12-20T06:18:20;0.70;;;0.60;;
422;SDS011;198;48.752;9.180;2023-12-20T06:20:46;3.77;;;0.80;;
422;SDS011;198;48.752;9.180;2023-12-20T06:23:11;0.60;;;0.57;;
422;SDS011;198;48.752;9.180;2023-12-20T06:25:37;0.70;;;0.60;;
422;SDS011;198;48.752;9.180;2023-12-20T06:28:02;1.23;;;0.80;;
422;SDS011;198;48.752;9.180;2023-12-20T06:30:28;2.20;;;1.10;;
422;SDS011;198;48.752;9.180;2023-12-20T06:32:54;1.13;;;0.70;;
422;SDS011;198;48.752;9.180;2023-12-20T06:35:19;0.77;;;0.57;;
422;SDS011;198;48.752;9.180;2023-12-20T06:37:45;0.80;;;0.70;;
422;SDS011;198;48.752;9.180;2023-12-20T06:40:11;0.80;;;0.70;;
422;SDS011;198;48.752;9.180;2023-12-20T06:42:37;0.67;;;0.60;;
422;SDS011;198;48.752;9.180;2023-12-20T06:45:02;3.50;;;0.60;;
422;SDS011;198;48.752;9.180;2023-12-20T06:47:28;1.07;;;0.90;;
422;SDS011;198;48.752;9.180;2023-12-20T06:49:54;3.77;;;0.77;;
422;SDS011;198;48.752;9.180;2023-12-20T06:52:19;0.87;;;0.77;;
422;SDS011;198;48.752;9.180;2023-12-20T06:54:45;1.40;;;1.07;;
422;SDS011;198;48.752;9.180;2023-12-20T06:57:10;1.10;;;0.90;;
422;SDS011;198;48.752;9.180;2023-12-20T06:59:40;1.13;;;1.03;;
422;SDS011;198;48.752;9.180;2023-12-20T07:02:06;1.10;;;0.93;;
422;SDS011;198;48.752;9.180;2023-12-20T07:04:32;1.53;;;0.60;;
422;SDS011;198;48.752;9.180;2023-12-20T07:06:58;2.50;;;0.70;;
422;SDS011;198;48.752;9.180;2023-12-20T07:09:25;2.30;;;0.90;;
422;SDS011;198;48.752;9.180;2023-12-20T07:11:51;1.03;;;0.70;;
422;SDS011;198;48.752;9.180;2023-12-20T07:14:17;0.53;;;0.47;;
422;SDS011;198;48.752;9.180;2023-12-20T07:16:43;0.63;;;0.57;;
422;SDS011;198;48.752;9.180;2023-12-20T07:19:08;0.90;;;0.87;;
422;SDS011;198;48.752;9.180;2023-12-20T07:21:34;1.63;;;0.90;;
422;SDS011;198;48.752;9.180;2023-12-20T07:23:59;0.70;;;0.60;;
422;SDS011;198;48.752;9.180;2023-12-20T07:26:25;0.67;;;0.60;;
422;SDS011;198;48.752;9.180;2023-12-20T07:28:50;0.70;;;0.60;;
422;SDS011;198;48.752;9.180;2023-12-20T07:31:16;0.77;;;0.70;;
422;SDS011;198;48.752;9.180;2023-12-20T07:33:41;1.47;;;1.00;;
422;SDS011;198;48.752;9.180;2023-12-20T07:36:07;0.70;;;0.70;;
422;SDS011;198;48.752;9.180;2023-12-20T07:38:32;1.27;;;1.00;;
422;SDS011;198;48.752;9.180;2023-12-20T07:40:58;1.53;;;1.40;;
422;SDS011;198;48.752;9.180;2023-12-20T07:43:24;3.20;;;1.23;;
422;SDS011;198;48.752;9.180;2023-12-20T07:45:49;2.93;;;1.90;;
422;SDS011;198;48.752;9.180;2023-12-20T07:48:15;3.70;;;1.60;;
422;SDS011;198;48.752;9.180;2023-12-20T07:50:40;2.93;;;2.13;;
422;SDS011;198;48.752;9.180;2023-12-20T07:53:07;2.27;;;2.07;;
422;SDS011;198;48.752;9.180;2023-12-20T07:55:32;2.03;;;1.57;;
422;SDS011;198;48.752;9.180;2023-12-20T07:57:59;6.03;;;2.30;;
422;SDS011;198;48.752;9.180;2023-12-20T08:00:25;4.23;;;2.20;;
422;SDS011;198;48.752;9.180;2023-12-20T08:02:50;4.07;;;2.00;;
422;SDS011;198;48.752;9.180;2023-12-20T08:05:16;2.43;;;1.60;;
422;SDS011;198;48.752;9.180;2023-12-20T08:07:41;5.20;;;2.37;;
422;SDS011;198;48.752;9.180;2023-12-20T08:10:07;2.67;;;2.17;;
422;SDS011;198;48.752;9.180;2023-12-20T08:12:33;2.67;;;2.20;;
422;SDS011;198;48.752;9.180;2023-12-20T08:14:59;4.57;;;2.33;;
422;SDS011;198;48.752;9.180;2023-12-20T08:17:24;2.50;;;2.30;;
422;SDS011;198;48.752;9.180;2023-12-20T08:19:50;4.97;;;2.80;;
422;SDS011;198;48.752;9.180;2023-12-20T08:22:16;4.47;;;2.33;;
422;SDS011;198;48.752;9.180;2023-12-20T08:24:41;8.43;;;2.37;;
422;SDS011;198;48.752;9.180;2023-12-20T08:27:07;1.73;;;1.63;;
422;SDS011;198;48.752;9.180;2023-12-20T08:29:34;2.90;;;2.43;;
422;SDS011;198;48.752;9.180;2023-12-20T08:32:00;4.20;;;2.43;;
422;SDS011;198;48.752;9.180;2023-12-20T08:34:25;5.00;;;2.27;;
422;SDS011;198;48.752;9.180;2023-12-20T08:36:51;4.30;;;1.90;;
422;SDS011;198;48.752;9.180;2023-12-20T08:39:17;2.57;;;2.40;;
422;SDS011;198;48.752;9.180;2023-12-20T08:41:42;7.60;;;2.63;;
422;SDS011;198;48.752;9.180;2023-12-20T08:44:08;5.40;;;2.67;;
422;SDS011;198;48.752;9.180;2023-12-20T08:46:34;2.77;;;2.40;;
422;SDS011;198;48.752;9.180;2023-12-20T08:49:00;12.33;;;2.10;;
422;SDS011;198;48.752;9.180;2023-12-20T08:51:26;4.20;;;2.80;;
422;SDS011;198;48.752;9.180;2023-12-20T08:53:52;10.67;;;3.17;;
422;SDS011;198;48.752;9.180;2023-12-20T08:56:18;3.50;;;2.27;;
422;SDS011;198;48.752;9.180;2023-12-20T08:58:45;6.40;;;2.50;;
422;SDS011;198;48.752;9.180;2023-12-20T09:01:12;2.60;;;2.23;;
422;SDS011;198;48.752;9.180;2023-12-20T09:03:38;2.87;;;2.20;;
422;SDS011;198;48.752;9.180;2023-12-20T09:06:05;6.57;;;2.10;;
422;SDS011;198;48.752;9.180;2023-12-20T09:08:31;2.33;;;1.87;;
422;SDS011;198;48.752;9.180;2023-12-20T09:10:56;2.27;;;1.73;;
422;SDS011;198;48.752;9.180;2023-12-20T09:13:22;4.70;;;1.57;;
422;SDS011;198;48.752;9.180;2023-12-20T09:15:52;1.63;;;1.40;;
422;SDS011;198;48.752;9.180;2023-12-20T09:18:21;2.97;;;1.67;;
422;SDS011;198;48.752;9.180;2023-12-20T09:20:47;3.47;;;1.93;;
422;SDS011;198;48.752;9.180;2023-12-20T09:23:12;6.63;;;1.67;;
422;SDS011;198;48.752;9.180;2023-12-20T09:25:38;2.87;;;1.40;;
422;SDS011;198;48.752;9.180;2023-12-20T09:28:03;4.67;;;1.73;;
422;SDS011;198;48.752;9.180;2023-12-20T09:30:29;1.80;;;1.50;;
422;SDS011;198;48.752;9.180;2023-12-20T09:32:55;1.47;;;1.00;;
422;SDS011;198;48.752;9.180;2023-12-20T09:35:20;4.30;;;1.70;;
422;SDS011;198;48.752;9.180;2023-12-20T09:37:46;5.17;;;1.60;;
422;SDS011;198;48.752;9.180;2023-12-20T09:40:14;10.47;;;1.47;;
422;SDS011;198;48.752;9.180;2023-12-20T09:42:48;3.10;;;1.37;;
422;SDS011;198;48.752;9.180;2023-12-20T09:45:22;3.50;;;1.50;;
422;SDS011;198;48.752;9.180;2023-12-20T09:47:49;2.83;;;1.47;;
422;SDS011;198;48.752;9.180;2023-12-20T09:50:15;2.10;;;0.93;;
422;SDS011;198;48.752;9.180;2023-12-20T09:52:47;5.97;;;1.50;;
422;SDS011;198;48.752;9.180;2023-12-20T09:55:17;1.73;;;1.00;;
422;SDS011;198;48.752;9.180;2023-12-20T09:57:44;5.87;;;1.20;;
422;SDS011;198;48.752;9.180;2023-12-20T10:00:10;1.37;;;1.20;;
422;SDS011;198;48.752;9.180;2023-12-20T10:02:36;2.90;;;1.20;;
422;SDS011;198;48.752;9.180;2023-12-20T10:05:07;5.83;;;1.67;;
422;SDS011;198;48.752;9.180;2023-12-20T10:07:36;9.97;;;1.63;;
422;SDS011;198;48.752;9.180;2023-12-20T10:10:02;2.63;;;1.23;;
422;SDS011;198;48.752;9.180;2023-12-20T10:12:28;3.93;;;1.30;;
422;SDS011;198;48.752;9.180;2023-12-20T10:14:54;4.63;;;1.20;;
422;SDS011;198;48.752;9.180;2023-12-20T10:17:19;4.63;;;1.17;;
422;SDS011;198;48.752;9.180;2023-12-20T10:19:46;6.83;;;1.50;;
422;SDS011;198;48.752;9.180;2023-12-20T10:22:12;4.40;;;1.30;;
422;SDS011;198;48.752;9.180;2023-12-20T10:24:37;6.20;;;1.30;;
422;SDS011;198;48.752;9.180;2023-12-20T10:27:05;11.80;;;1.50;;
422;SDS011;198;48.752;9.180;2023-12-20T10:29:32;1.50;;;0.90;;
422;SDS011;198;48.752;9.180;2023-12-20T10:34:49;14.23;;;1.93;;
422;SDS011;198;48.752;9.180;2023-12-20T10:37:17;2.80;;;1.20;;
422;SDS011;198;48.752;9.180;2023-12-20T10:39:43;2.93;;;1.37;;
422;SDS011;198;48.752;9.180;2023-12-20T10:42:09;1.73;;;1.23;;
422;SDS011;198;48.752;9.180;2023-12-20T10:44:37;9.30;;;1.97;;
422;SDS011;198;48.752;9.180;2023-12-20T10:47:03;6.17;;;1.47;;
422;SDS011;198;48.752;9.180;2023-12-20T10:49:29;4.93;;;1.40;;
422;SDS011;198;48.752;9.180;2023-12-20T10:51:56;2.03;;;1.37;;
422;SDS011;198;48.752;9.180;2023-12-20T10:54:24;9.23;;;1.40;;
422;SDS011;198;48.752;9.180;2023-12-20T10:56:50;2.40;;;1.10;;
422;SDS011;198;48.752;9.180;2023-12-20T10:59:18;11.13;;;1.67;;
422;SDS011;198;48.752;9.180;2023-12-20T11:01:45;4.83;;;1.10;;
422;SDS011;198;48.752;9.180;2023-12-20T11:04:14;2.37;;;1.00;;
422;SDS011;198;48.752;9.180;2023-12-20T11:09:22;3.30;;;1.03;;
422;SDS011;198;48.752;9.180;2023-12-20T11:15:00;15.30;;;1.73;;
422;SDS011;198;48.752;9.180;2023-12-20T11:17:29;2.20;;;1.40;;
422;SDS011;198;48.752;9.180;2023-12-20T11:22:20;1.90;;;1.20;;
422;SDS011;198;48.752;9.180;2023-12-20T11:24:46;4.80;;;1.30;;
422;SDS011;198;48.752;9.180;2023-12-20T11:27:13;5.70;;;1.50;;
422;SDS011;198;48.752;9.180;2023-12-20T11:29:39;4.90;;;1.77;;
422;SDS011;198;48.752;9.180;2023-12-20T11:34:50;7.37;;;1.60;;
422;SDS011;198;48.752;9.180;2023-12-20T11:37:16;4.73;;;1.40;;
422;SDS011;198;48.752;9.180;2023-12-20T11:39:43;3.90;;;1.10;;
422;SDS011;198;48.752;9.180;2023-12-20T11:42:09;5.40;;;1.63;;
422;SDS011;198;48.752;9.180;2023-12-20T11:44:36;1.97;;;1.00;;
422;SDS011;198;48.752;9.180;2023-12-20T11:47:02;22.30;;;2.57;;
422;SDS011;198;48.752;9.180;2023-12-20T11:49:28;3.80;;;1.50;;
422;SDS011;198;48.752;9.180;2023-12-20T11:51:55;5.13;;;1.70;;
422;SDS011;198;48.752;9.180;2023-12-20T11:54:21;4.47;;;1.73;;
422;SDS011;198;48.752;9.180;2023-12-20T11:56:47;6.37;;;1.40;;
422;SDS011;198;48.752;9.180;2023-12-20T11:59:13;3.97;;;1.30;;
422;SDS011;198;48.752;9.180;2023-12-20T12:01:38;6.93;;;1.40;;
422;SDS011;198;48.752;9.180;2023-12-20T12:04:07;2.70;;;1.10;;
422;SDS011;198;48.752;9.180;2023-12-20T12:06:32;3.13;;;1.43;;
422;SDS011;198;48.752;9.180;2023-12-20T12:08:58;4.67;;;1.37;;
422;SDS011;198;48.752;9.180;2023-12-20T12:11:24;5.03;;;1.20;;
422;SDS011;198;48.752;9.180;2023-12-20T12:13:50;2.73;;;1.20;;
422;SDS011;198;48.752;9.180;2023-12-20T12:16:19;10.23;;;1.40;;
422;SDS011;198;48.752;9.180;2023-12-20T12:18:45;4.40;;;1.87;;
422;SDS011;198;48.752;9.180;2023-12-20T12:21:18;2.87;;;1.30;;
422;SDS011;198;48.752;9.180;2023-12-20T12:23:45;4.07;;;1.93;;
422;SDS011;198;48.752;9.180;2023-12-20T12:26:11;3.47;;;1.43;;
422;SDS011;198;48.752;9.180;2023-12-20T12:28:37;5.77;;;2.00;;
422;SDS011;198;48.752;9.180;2023-12-20T12:31:05;4.37;;;1.73;;
422;SDS011;198;48.752;9.180;2023-12-20T12:33:30;12.30;;;2.03;;
422;SDS011;198;48.752;9.180;2023-12-20T12:35:56;3.73;;;1.47;;
422;SDS011;198;48.752;9.180;2023-12-20T12:38:22;4.73;;;1.50;;
422;SDS011;198;48.752;9.180;2023-12-20T12:40:49;7.20;;;1.67;;
422;SDS011;198;48.752;9.180;2023-12-20T12:43:15;4.53;;;1.47;;
422;SDS011;198;48.752;9.180;2023-12-20T12:45:40;6.50;;;1.57;;
422;SDS011;198;48.752;9.180;2023-12-20T12:48:06;5.90;;;2.10;;
422;SDS011;198;48.752;9.180;2023-12-20T12:50:32;3.43;;;1.50;;
422;SDS011;198;48.752;9.180;2023-12-20T12:52:57;2.80;;;1.27;;
422;SDS011;198;48.752;9.180;2023-12-20T12:55:23;11.40;;;1.60;;
422;SDS011;198;48.752;9.180;2023-12-20T12:57:48;4.53;;;1.23;;
422;SDS011;198;48.752;9.180;2023-12-20T13:00:14;10.70;;;1.40;;
422;SDS011;198;48.752;9.180;2023-12-20T13:02:39;2.00;;;1.87;;
422;SDS011;198;48.752;9.180;2023-12-20T13:05:08;8.10;;;1.30;;
422;SDS011;198;48.752;9.180;2023-12-20T13:07:34;13.53;;;3.27;;
422;SDS011;198;48.752;9.180;2023-12-20T13:09:59;3.40;;;1.30;;
422;SDS011;198;48.752;9.180;2023-12-20T13:12:25;3.00;;;1.53;;
422;SDS011;198;48.752;9.180;2023-12-20T13:14:51;1.87;;;1.40;;
422;SDS011;198;48.752;9.180;2023-12-20T13:17:16;5.87;;;1.77;;
422;SDS011;198;48.752;9.180;2023-12-20T13:19:42;2.63;;;1.40;;
422;SDS011;198;48.752;9.180;2023-12-20T13:22:07;2.73;;;0.90;;
422;SDS011;198;48.752;9.180;2023-12-20T13:24:33;6.43;;;1.40;;
422;SDS011;198;48.752;9.180;2023-12-20T13:26:59;4.73;;;1.43;;
422;SDS011;198;48.752;9.180;2023-12-20T13:29:25;5.67;;;2.13;;
422;SDS011;198;48.752;9.180;2023-12-20T13:31:53;2.63;;;1.37;;
422;SDS011;198;48.752;9.180;2023-12-20T13:34:19;12.50;;;1.50;;
422;SDS011;198;48.752;9.180;2023-12-20T13:36:45;1.60;;;1.10;;
422;SDS011;198;48.752;9.180;2023-12-20T13:39:12;4.47;;;1.40;;
422;SDS011;198;48.752;9.180;2023-12-20T13:41:38;1.87;;;1.30;;
422;SDS011;198;48.752;9.180;2023-12-20T13:44:04;4.40;;;1.30;;
422;SDS011;198;48.752;9.180;2023-12-20T13:46:30;4.37;;;0.97;;
422;SDS011;198;48.752;9.180;2023-12-20T13:48:56;2.50;;;1.20;;
422;SDS011;198;48.752;9.180;2023-12-20T13:51:21;5.73;;;1.20;;
422;SDS011;198;48.752;9.180;2023-12-20T13:53:47;3.63;;;1.17;;
422;SDS011;198;48.752;9.180;2023-12-20T13:56:14;4.20;;;1.40;;
422;SDS011;198;48.752;9.180;2023-12-20T13:58:40;4.20;;;1.20;;
422;SDS011;198;48.752;9.180;2023-12-20T14:01:06;8.10;;;1.50;;
422;SDS011;198;48.752;9.180;2023-12-20T14:03:32;3.20;;;1.10;;
422;SDS011;198;48.752;9.180;2023-12-20T14:05:58;2.83;;;1.27;;
422;SDS011;198;48.752;9.180;2023-12-20T14:08:26;6.67;;;1.30;;
422;SDS011;198;48.752;9.180;2023-12-20T14:10:52;4.57;;;1.40;;
422;SDS011;198;48.752;9.180;2023-12-20T14:13:17;1.63;;;1.00;;
422;SDS011;198;48.752;9.180;2023-12-20T14:15:43;5.03;;;1.50;;
422;SDS011;198;48.752;9.180;2023-12-20T14:18:09;8.03;;;1.30;;
422;SDS011;198;48.752;9.180;2023-12-20T14:20:35;6.10;;;1.50;;
422;SDS011;198;48.752;9.180;2023-12-20T14:23:01;3.43;;;1.33;;
422;SDS011;198;48.752;9.180;2023-12-20T14:25:28;3.87;;;1.10;;
422;SDS011;198;48.752;9.180;2023-12-20T14:27:54;1.70;;;1.37;;
422;SDS011;198;48.752;9.180;2023-12-20T14:30:19;9.30;;;1.77;;
422;SDS011;198;48.752;9.180;2023-12-20T14:32:45;3.73;;;1.40;;
422;SDS011;198;48.752;9.180;2023-12-20T14:35:13;2.23;;;1.20;;
422;SDS011;198;48.752;9.180;2023-12-20T14:37:38;2.03;;;1.63;;
422;SDS011;198;48.752;9.180;2023-12-20T14:40:06;3.50;;;1.27;;
422;SDS011;198;48.752;9.180;2023-12-20T14:42:35;4.13;;;1.30;;
422;SDS011;198;48.752;9.180;2023-12-20T14:45:00;3.27;;;1.40;;
422;SDS011;198;48.752;9.180;2023-12-20T14:47:26;5.20;;;1.23;;
422;SDS011;198;48.752;9.180;2023-12-20T14:49:51;9.67;;;1.77;;
422;SDS011;198;48.752;9.180;2023-12-20T14:52:17;6.70;;;1.27;;
422;SDS011;198;48.752;9.180;2023-12-20T14:54:43;3.87;;;1.23;;
422;SDS011;198;48.752;9.180;2023-12-20T14:57:09;7.23;;;2.30;;
422;SDS011;198;48.752;9.180;2023-12-20T14:59:35;2.73;;;1.30;;
422;SDS011;198;48.752;9.180;2023-12-20T15:02:01;2.37;;;1.30;;
422;SDS011;198;48.752;9.180;2023-12-20T15:04:30;4.43;;;1.33;;
422;SDS011;198;48.752;9.180;2023-12-20T15:06:58;1.47;;;1.30;;
422;SDS011;198;48.752;9.180;2023-12-20T15:09:25;1.60;;;1.03;;
422;SDS011;198;48.752;9.180;2023-12-20T15:11:51;6.93;;;1.43;;
422;SDS011;198;48.752;9.180;2023-12-20T15:14:17;6.40;;;1.77;;
422;SDS011;198;48.752;9.180;2023-12-20T15:16:45;3.80;;;1.23;;
422;SDS011;198;48.752;9.180;2023-12-20T15:19:14;3.90;;;1.37;;
422;SDS011;198;48.752;9.180;2023-12-20T15:21:40;5.60;;;1.37;;
422;SDS011;198;48.752;9.180;2023-12-20T15:24:08;4.40;;;2.47;;
422;SDS011;198;48.752;9.180;2023-12-20T15:26:40;3.07;;;1.57;;
422;SDS011;198;48.752;9.180;2023-12-20T15:29:06;9.83;;;2.00;;
422;SDS011;198;48.752;9.180;2023-12-20T15:31:32;10.07;;;1.90;;
422;SDS011;198;48.752;9.180;2023-12-20T15:33:58;10.17;;;2.20;;
422;SDS011;198;48.752;9.180;2023-12-20T15:36:24;3.87;;;1.20;;
422;SDS011;198;48.752;9.180;2023-12-20T15:38:50;4.63;;;1.47;;
422;SDS011;198;48.752;9.180;2023-12-20T15:41:20;1.23;;;1.00;;
422;SDS011;198;48.752;9.180;2023-12-20T15:43:46;4.43;;;1.50;;
422;SDS011;198;48.752;9.180;2023-12-20T15:46:12;1.83;;;1.20;;
422;SDS011;198;48.752;9.180;2023-12-20T15:48:37;7.60;;;1.67;;
422;SDS011;198;48.752;9.180;2023-12-20T15:51:06;1.50;;;1.37;;